createdAt,value
2023-05-13T00:02:08.474Z,100981.33
2023-05-13T00:04:40.287Z,100979.13
2023-05-13T00:07:12.202Z,100976.92
2023-05-13T00:09:44.110Z,100983.75
2023-05-13T00:12:16.045Z,100982.90
2023-05-13T00:14:48.134Z,100977.84
2023-05-13T00:17:19.778Z,100981.08
2023-05-13T00:19:51.771Z,100977.48
2023-05-13T00:22:23.668Z,100979.84
2023-05-13T00:24:55.759Z,100976.73
2023-05-13T00:27:27.419Z,100983.18
2023-05-13T00:30:00.258Z,100978.22
2023-05-13T00:32:33.422Z,100982.43
2023-05-13T00:35:16.004Z,100979.70
2023-05-13T00:37:48.007Z,100983.79
2023-05-13T00:40:24.246Z,100976.98
2023-05-13T00:42:56.085Z,100978.99
2023-05-13T00:45:27.602Z,100981.48
2023-05-13T00:48:00.365Z,100979.50
2023-05-13T00:50:32.796Z,100978.03
2023-05-13T00:53:06.446Z,100975.56
2023-05-13T00:55:46.272Z,100983.98
2023-05-13T00:58:18.218Z,100983.62
2023-05-13T01:00:59.661Z,100978.30
2023-05-13T01:03:41.172Z,100983.35
2023-05-13T01:06:23.379Z,100983.60
2023-05-13T01:09:21.228Z,100981.76
2023-05-13T01:11:53.138Z,100977.08
2023-05-13T01:14:27.226Z,100977.92
2023-05-13T01:17:26.971Z,100985.61
2023-05-13T01:19:59.609Z,100977.46
2023-05-13T01:25:01.452Z,100985.48
2023-05-13T01:27:34.461Z,100990.20
2023-05-13T01:30:24.213Z,100990.93
2023-05-13T01:32:56.990Z,100990.34
2023-05-13T01:35:29.477Z,100989.58
2023-05-13T01:38:01.917Z,100980.31
2023-05-13T01:40:35.083Z,100984.52
2023-05-13T01:43:08.966Z,100981.20
2023-05-13T01:45:42.179Z,100978.73
2023-05-13T01:48:14.865Z,100976.98
2023-05-13T01:50:48.362Z,100976.01
2023-05-13T01:53:21.711Z,100977.37
2023-05-13T01:55:54.426Z,100972.89
2023-05-13T01:58:26.265Z,100979.69
2023-05-13T02:00:58.929Z,100977.85
2023-05-13T02:03:30.964Z,100977.37
2023-05-13T02:06:04.199Z,100981.45
2023-05-13T02:08:36.646Z,100985.52
2023-05-13T02:11:08.726Z,100988.12
2023-05-13T02:13:41.109Z,100989.20
2023-05-13T02:16:34.079Z,100987.84
2023-05-13T02:19:07.836Z,100984.53
2023-05-13T02:21:39.782Z,100986.02
2023-05-13T02:24:11.968Z,100982.55
2023-05-13T02:26:45.136Z,100983.18
2023-05-13T02:29:17.321Z,100983.91
2023-05-13T02:31:49.220Z,100981.19
2023-05-13T02:34:21.452Z,100984.78
2023-05-13T02:36:53.530Z,100987.73
2023-05-13T02:39:25.248Z,100989.45
2023-05-13T02:42:07.499Z,100993.80
2023-05-13T02:44:40.478Z,100997.36
2023-05-13T02:47:13.327Z,100998.59
2023-05-13T02:49:45.129Z,101000.08
2023-05-13T02:52:17.306Z,101002.80
2023-05-13T02:54:49.099Z,101001.84
2023-05-13T02:57:21.029Z,101005.16
2023-05-13T02:59:52.693Z,101005.29
2023-05-13T03:02:24.838Z,101005.75
2023-05-13T03:04:56.779Z,101013.02
2023-05-13T03:07:28.724Z,101012.25
2023-05-13T03:10:02.266Z,101016.19
2023-05-13T03:12:35.249Z,101023.84
2023-05-13T03:15:08.194Z,101025.48
2023-05-13T03:17:44.497Z,101031.74
2023-05-13T03:20:16.573Z,101031.23
2023-05-13T03:22:48.330Z,101030.72
2023-05-13T03:25:20.281Z,101034.78
2023-05-13T03:27:53.748Z,101026.98
2023-05-13T03:30:26.647Z,101035.25
2023-05-13T03:33:00.198Z,101030.03
2023-05-13T03:35:32.720Z,101038.41
2023-05-13T03:38:04.924Z,101037.01
2023-05-13T03:40:38.516Z,101033.27
2023-05-13T03:43:10.546Z,101032.98
2023-05-13T03:45:45.108Z,101033.03
2023-05-13T03:48:17.228Z,101034.09
2023-05-13T03:50:49.203Z,101037.59
2023-05-13T03:53:21.597Z,101040.27
2023-05-13T03:55:53.692Z,101046.29
2023-05-13T03:58:25.489Z,101051.29
2023-05-13T04:00:57.643Z,101051.33
2023-05-13T04:03:29.452Z,101050.13
2023-05-13T04:06:01.301Z,101059.41
2023-05-13T04:08:33.878Z,101053.98
2023-05-13T04:11:05.497Z,101051.66
2023-05-13T04:13:38.205Z,101058.70
2023-05-13T04:16:09.842Z,101056.02
2023-05-13T04:18:41.977Z,101052.95
2023-05-13T04:21:13.579Z,101058.80
2023-05-13T04:23:45.525Z,101057.30
2023-05-13T04:26:17.461Z,101056.94
2023-05-13T04:28:49.780Z,101062.25
2023-05-13T04:31:22.695Z,101066.58
2023-05-13T04:33:56.030Z,101067.13
2023-05-13T04:36:28.784Z,101063.24
2023-05-13T04:39:00.730Z,101064.94
2023-05-13T04:41:32.870Z,101065.58
2023-05-13T04:44:06.331Z,101065.55
2023-05-13T04:46:40.598Z,101066.63
2023-05-13T04:49:12.507Z,101068.19
2023-05-13T04:51:46.312Z,101071.13
2023-05-13T04:54:18.480Z,101060.36
2023-05-13T04:56:50.530Z,101065.44
2023-05-13T04:59:22.230Z,101064.91
2023-05-13T05:01:55.224Z,101068.47
2023-05-13T05:04:27.510Z,101072.16
2023-05-13T05:06:59.838Z,101065.81
2023-05-13T05:09:31.980Z,101070.08
2023-05-13T05:12:04.269Z,101070.06
2023-05-13T05:14:38.644Z,101072.75
2023-05-13T05:17:11.087Z,101071.86
2023-05-13T05:19:42.776Z,101068.93
2023-05-13T05:22:14.578Z,101074.19
2023-05-13T05:24:48.063Z,101070.84
2023-05-13T05:27:19.803Z,101065.46
2023-05-13T05:29:51.453Z,101064.92
2023-05-13T05:32:23.650Z,101070.72
2023-05-13T05:34:55.727Z,101061.94
2023-05-13T05:37:27.998Z,101064.08
2023-05-13T05:39:59.933Z,101065.52
2023-05-13T05:42:31.800Z,101062.87
2023-05-13T05:45:03.495Z,101064.95
2023-05-13T05:47:36.010Z,101065.72
2023-05-13T05:50:08.776Z,101064.87
2023-05-13T05:52:41.310Z,101071.23
2023-05-13T05:55:13.759Z,101061.44
2023-05-13T05:57:45.421Z,101070.19
2023-05-13T06:00:29.257Z,101070.69
2023-05-13T06:03:01.244Z,101072.04
2023-05-13T06:05:35.560Z,101071.37
2023-05-13T06:08:07.577Z,101071.85
2023-05-13T06:10:39.754Z,101079.94
2023-05-13T06:13:11.959Z,101071.63
2023-05-13T06:15:43.845Z,101071.95
2023-05-13T06:18:15.961Z,101077.80
2023-05-13T06:20:47.873Z,101078.44
2023-05-13T06:23:20.100Z,101080.30
2023-05-13T06:25:51.960Z,101079.77
2023-05-13T06:28:23.661Z,101087.32
2023-05-13T06:30:55.805Z,101075.39
2023-05-13T06:33:27.539Z,101077.22
2023-05-13T06:36:00.148Z,101076.64
2023-05-13T06:38:32.299Z,101081.77
2023-05-13T06:41:04.560Z,101079.05
2023-05-13T06:43:39.166Z,101080.11
2023-05-13T06:46:15.524Z,101073.44
2023-05-13T06:48:47.376Z,101069.98
2023-05-13T06:51:19.059Z,101075.33
2023-05-13T06:53:50.631Z,101071.77
2023-05-13T06:56:23.142Z,101069.52
2023-05-13T06:58:54.829Z,101070.37
2023-05-13T07:01:28.007Z,101073.02
2023-05-13T07:04:00.493Z,101070.11
2023-05-13T07:06:33.808Z,101074.55
2023-05-13T07:09:08.321Z,101072.08
2023-05-13T07:11:40.232Z,101072.14
2023-05-13T07:14:12.392Z,101069.49
2023-05-13T07:16:44.284Z,101064.06
2023-05-13T07:19:15.982Z,101063.61
2023-05-13T07:21:49.759Z,101063.19
2023-05-13T07:24:22.195Z,101060.68
2023-05-13T07:26:54.107Z,101066.13
2023-05-13T07:29:27.628Z,101063.06
2023-05-13T07:31:59.412Z,101059.98
2023-05-13T07:34:31.752Z,101062.43
2023-05-13T07:37:04.659Z,101065.72
2023-05-13T07:39:37.182Z,101063.70
2023-05-13T07:42:09.032Z,101063.09
2023-05-13T07:44:40.837Z,101058.69
2023-05-13T07:47:13.717Z,101062.20
2023-05-13T07:49:45.697Z,101065.76
2023-05-13T07:52:17.613Z,101062.06
2023-05-13T07:54:49.504Z,101054.75
2023-05-13T07:57:21.458Z,101061.24
2023-05-13T07:59:54.314Z,101060.33
2023-05-13T08:02:26.203Z,101047.84
2023-05-13T08:04:57.965Z,101048.38
2023-05-13T08:07:29.769Z,101051.27
2023-05-13T08:10:01.755Z,101049.36
2023-05-13T08:12:33.820Z,101064.63
2023-05-13T08:15:07.309Z,101056.30
2023-05-13T08:17:54.324Z,101059.06
2023-05-13T08:20:27.655Z,101061.00
2023-05-13T08:22:59.452Z,101056.83
2023-05-13T08:25:31.361Z,101057.89
2023-05-13T08:28:03.869Z,101042.41
2023-05-13T08:30:35.845Z,101040.28
2023-05-13T08:33:08.444Z,101042.20
2023-05-13T08:35:40.123Z,101035.24
2023-05-13T08:38:22.279Z,101029.00
2023-05-13T08:40:53.946Z,101030.60
2023-05-13T08:43:26.138Z,101031.09
2023-05-13T08:45:58.599Z,101031.17
2023-05-13T08:48:30.346Z,101028.52
2023-05-13T08:51:02.612Z,101020.86
2023-05-13T08:53:35.611Z,101014.25
2023-05-13T08:56:09.596Z,101014.57
2023-05-13T08:58:42.123Z,101015.50
2023-05-13T09:01:13.953Z,101011.00
2023-05-13T09:03:48.946Z,101010.45
2023-05-13T09:06:21.130Z,101002.06
2023-05-13T09:08:53.064Z,101001.84
2023-05-13T09:11:24.704Z,100998.97
2023-05-13T09:14:23.494Z,100993.39
2023-05-13T09:16:57.028Z,100999.91
2023-05-13T09:19:28.750Z,100986.98
2023-05-13T09:22:00.511Z,100987.81
2023-05-13T09:24:33.706Z,100984.23
2023-05-13T09:27:05.456Z,100988.67
2023-05-13T09:29:37.183Z,100985.05
2023-05-13T09:32:09.428Z,100975.56
2023-05-13T09:34:41.361Z,100971.21
2023-05-13T09:37:16.179Z,100969.23
2023-05-13T09:39:48.145Z,100967.70
2023-05-13T09:42:20.972Z,100962.55
2023-05-13T09:44:52.648Z,100963.18
2023-05-13T09:47:25.580Z,100961.22
2023-05-13T09:49:58.021Z,100948.58
2023-05-13T09:52:32.024Z,100956.50
2023-05-13T09:55:05.435Z,100946.08
2023-05-13T10:00:31.621Z,100942.83
2023-05-13T10:02:53.914Z,100944.97
2023-05-13T10:05:25.828Z,100938.20
2023-05-13T10:07:57.604Z,100941.14
2023-05-13T10:10:33.066Z,100938.81
2023-05-13T10:13:11.548Z,100946.81
2023-05-13T10:15:54.003Z,100935.90
2023-05-13T10:18:26.018Z,100938.33
2023-05-13T10:20:57.590Z,100926.69
2023-05-13T10:23:29.380Z,100931.18
2023-05-13T10:26:01.414Z,100931.78
2023-05-13T10:28:34.231Z,100929.95
2023-05-13T10:31:05.900Z,100921.28
2023-05-13T10:33:37.732Z,100913.61
2023-05-13T10:36:19.872Z,100911.23
2023-05-13T10:39:04.974Z,100905.02
2023-05-13T10:42:00.314Z,100897.13
2023-05-13T10:44:33.804Z,100908.81
2023-05-13T10:47:05.702Z,100904.30
2023-05-13T10:49:37.661Z,100902.64
2023-05-13T10:52:13.516Z,100911.28
2023-05-13T10:54:44.474Z,100911.98
2023-05-13T10:57:17.761Z,100908.66
2023-05-13T11:00:07.865Z,100908.41
2023-05-13T11:02:40.001Z,100909.05
2023-05-13T11:05:13.475Z,100906.41
2023-05-13T11:07:45.598Z,100907.50
2023-05-13T11:10:32.786Z,100904.24
2023-05-13T11:13:18.184Z,100908.45
2023-05-13T11:16:11.138Z,100905.69
2023-05-13T11:18:43.117Z,100902.91
2023-05-13T11:21:15.019Z,100897.06
2023-05-13T11:24:00.338Z,100900.96
2023-05-13T11:26:49.046Z,100899.59
2023-05-13T11:29:31.227Z,100896.03
2023-05-13T11:32:03.911Z,100894.87
2023-05-13T11:34:36.289Z,100899.14
2023-05-13T11:37:09.318Z,100885.68
2023-05-13T11:39:41.992Z,100893.77
2023-05-13T11:42:13.869Z,100882.46
2023-05-13T11:44:47.773Z,100888.30
2023-05-13T11:47:28.445Z,100883.47
2023-05-13T11:50:00.584Z,100890.89
2023-05-13T11:52:33.742Z,100880.17
2023-05-13T11:55:07.178Z,100873.75
2023-05-13T11:57:39.443Z,100877.91
2023-05-13T12:00:12.701Z,100878.02
2023-05-13T12:02:46.259Z,100871.80
2023-05-13T12:05:18.101Z,100871.34
2023-05-13T12:07:50.964Z,100871.34
2023-05-13T12:10:24.711Z,100869.95
2023-05-13T12:12:56.676Z,100875.81
2023-05-13T12:15:28.381Z,100868.25
2023-05-13T12:18:00.332Z,100870.37
2023-05-13T12:20:32.826Z,100861.22
2023-05-13T12:23:05.341Z,100860.66
2023-05-13T12:25:48.060Z,100868.31
2023-05-13T12:28:40.745Z,100864.56
2023-05-13T12:31:15.773Z,100862.00
2023-05-13T12:33:49.528Z,100855.38
2023-05-13T12:36:28.192Z,100852.33
2023-05-13T12:39:01.836Z,100847.48
2023-05-13T12:41:35.079Z,100843.58
2023-05-13T12:44:11.749Z,100841.05
2023-05-13T12:46:53.499Z,100840.52
2023-05-13T12:49:25.270Z,100832.55
2023-05-13T12:51:57.385Z,100835.71
2023-05-13T12:54:29.130Z,100829.66
2023-05-13T12:57:00.990Z,100832.86
2023-05-13T12:59:34.883Z,100833.37
2023-05-13T13:02:07.008Z,100830.90
2023-05-13T13:04:38.821Z,100831.41
2023-05-13T13:07:12.207Z,100825.67
2023-05-13T13:09:44.000Z,100826.70
2023-05-13T13:12:15.758Z,100831.89
2023-05-13T13:14:47.580Z,100824.16
2023-05-13T13:17:19.305Z,100826.13
2023-05-13T13:19:51.365Z,100827.52
2023-05-13T13:22:23.753Z,100827.56
2023-05-13T13:24:55.598Z,100828.55
2023-05-13T13:27:27.319Z,100824.08
2023-05-13T13:29:59.014Z,100831.64
2023-05-13T13:32:31.074Z,100822.46
2023-05-13T13:35:03.519Z,100826.08
2023-05-13T13:37:36.262Z,100825.80
2023-05-13T13:40:29.823Z,100825.78
2023-05-13T13:43:01.454Z,100824.59
2023-05-13T13:45:33.086Z,100821.69
2023-05-13T13:48:05.396Z,100822.22
2023-05-13T13:50:37.101Z,100817.22
2023-05-13T13:53:09.094Z,100822.03
2023-05-13T13:55:40.750Z,100818.51
2023-05-13T13:58:12.440Z,100820.88
2023-05-13T14:00:44.980Z,100820.56
2023-05-13T14:03:16.948Z,100817.70
2023-05-13T14:05:49.186Z,100812.33
2023-05-13T14:08:20.820Z,100818.97
2023-05-13T14:10:53.628Z,100822.71
2023-05-13T14:13:25.765Z,100814.02
2023-05-13T14:15:57.519Z,100817.54
2023-05-13T14:18:29.489Z,100816.56
2023-05-13T14:21:01.228Z,100820.08
2023-05-13T14:23:33.237Z,100815.44
2023-05-13T14:26:04.957Z,100813.71
2023-05-13T14:28:36.550Z,100815.06
2023-05-13T14:31:08.285Z,100818.77
2023-05-13T14:33:40.214Z,100813.06
2023-05-13T14:36:13.606Z,100813.84
2023-05-13T14:38:45.195Z,100815.28
2023-05-13T14:41:18.579Z,100813.80
2023-05-13T14:43:50.178Z,100811.63
2023-05-13T14:46:22.519Z,100815.99
2023-05-13T14:48:54.067Z,100809.99
2023-05-13T14:51:25.737Z,100808.07
2023-05-13T14:53:57.368Z,100808.69
2023-05-13T14:56:29.223Z,100800.38
2023-05-13T14:59:01.817Z,100800.69
2023-05-13T15:01:34.023Z,100803.66
2023-05-13T15:04:06.080Z,100799.91
2023-05-13T15:06:39.107Z,100799.91
2023-05-13T15:09:10.911Z,100798.10
2023-05-13T15:11:42.644Z,100799.02
2023-05-13T15:14:16.308Z,100803.18
2023-05-13T15:16:47.951Z,100795.73
2023-05-13T15:19:20.039Z,100789.22
2023-05-13T15:21:51.685Z,100799.84
2023-05-13T15:24:23.366Z,100794.61
2023-05-13T15:26:54.976Z,100801.07
2023-05-13T15:29:26.900Z,100799.39
2023-05-13T15:31:59.059Z,100800.02
2023-05-13T15:34:30.998Z,100793.88
2023-05-13T15:37:02.931Z,100797.62
2023-05-13T15:39:34.716Z,100799.15
2023-05-13T15:42:06.841Z,100793.81
2023-05-13T15:44:38.573Z,100796.58
2023-05-13T15:47:10.349Z,100793.36
2023-05-13T15:49:42.094Z,100801.96
2023-05-13T15:52:14.898Z,100797.03
2023-05-13T15:54:46.683Z,100794.61
2023-05-13T15:57:19.292Z,100797.36
2023-05-13T15:59:51.072Z,100798.37
2023-05-13T16:02:22.922Z,100797.76
2023-05-13T16:04:54.530Z,100794.86
2023-05-13T16:07:26.316Z,100795.16
2023-05-13T16:09:57.969Z,100796.94
2023-05-13T16:12:31.561Z,100792.86
2023-05-13T16:15:03.253Z,100792.89
2023-05-13T16:17:36.043Z,100787.71
2023-05-13T16:20:11.390Z,100794.96
2023-05-13T16:22:42.200Z,100798.22
2023-05-13T16:25:14.042Z,100794.41
2023-05-13T16:27:45.657Z,100791.94
2023-05-13T16:30:17.547Z,100803.98
2023-05-13T16:32:51.092Z,100802.69
2023-05-13T16:35:43.807Z,100804.00
2023-05-13T16:38:15.989Z,100804.22
2023-05-13T16:40:47.913Z,100807.94
2023-05-13T16:43:19.992Z,100805.61
2023-05-13T16:45:51.681Z,100806.69
2023-05-13T16:48:23.322Z,100808.64
2023-05-13T16:50:56.269Z,100811.97
2023-05-13T16:53:28.278Z,100812.72
2023-05-13T16:55:59.998Z,100812.97
2023-05-13T16:58:31.655Z,100815.97
2023-05-13T17:01:03.779Z,100812.89
2023-05-13T17:03:36.283Z,100811.24
2023-05-13T17:06:09.503Z,100806.47
2023-05-13T17:08:41.542Z,100813.09
2023-05-13T17:11:14.890Z,100812.78
2023-05-13T17:13:46.729Z,100818.02
2023-05-13T17:16:18.371Z,100814.26
2023-05-13T17:18:50.154Z,100817.02
2023-05-13T17:21:21.950Z,100823.23
2023-05-13T17:23:54.197Z,100827.02
2023-05-13T17:26:26.474Z,100826.59
2023-05-13T17:28:59.613Z,100828.16
2023-05-13T17:31:31.729Z,100825.81
2023-05-13T17:34:03.313Z,100830.69
2023-05-13T17:36:35.619Z,100823.18
2023-05-13T17:39:07.298Z,100827.31
2023-05-13T17:41:39.233Z,100825.33
2023-05-13T17:44:10.762Z,100826.89
2023-05-13T17:46:42.298Z,100834.35
2023-05-13T17:49:13.954Z,100828.70
2023-05-13T17:51:47.313Z,100835.26
2023-05-13T17:54:18.936Z,100840.47
2023-05-13T17:56:50.776Z,100841.02
2023-05-13T17:59:22.406Z,100840.17
2023-05-13T18:01:54.165Z,100845.53
2023-05-13T18:04:26.076Z,100846.21
2023-05-13T18:06:57.801Z,100844.87
2023-05-13T18:09:29.429Z,100845.73
2023-05-13T18:12:00.961Z,100848.00
2023-05-13T18:14:33.618Z,100844.73
2023-05-13T18:17:05.688Z,100845.27
2023-05-13T18:19:37.253Z,100851.13
2023-05-13T18:22:12.343Z,100849.78
2023-05-13T18:24:43.871Z,100854.63
2023-05-13T18:27:15.429Z,100852.58
2023-05-13T18:29:47.736Z,100859.28
2023-05-13T18:32:19.335Z,100878.06
2023-05-13T18:34:51.245Z,100874.45
2023-05-13T18:37:23.009Z,100872.59
2023-05-13T18:39:54.724Z,100863.86
2023-05-13T18:42:26.760Z,100868.50
2023-05-13T18:44:58.809Z,100865.73
2023-05-13T18:47:30.649Z,100865.05
2023-05-13T18:50:02.618Z,100873.64
2023-05-13T18:52:35.745Z,100861.95
2023-05-13T18:55:09.146Z,100875.01
2023-05-13T18:57:41.060Z,100871.59
2023-05-13T19:00:13.713Z,100866.59
2023-05-13T19:02:46.368Z,100867.81
2023-05-13T19:05:20.421Z,100869.36
2023-05-13T19:07:52.637Z,100872.11
2023-05-13T19:10:24.892Z,100868.48
2023-05-13T19:12:57.563Z,100862.31
2023-05-13T19:15:29.488Z,100866.77
2023-05-13T19:18:01.383Z,100866.27
2023-05-13T19:20:33.892Z,100863.67
2023-05-13T19:23:05.756Z,100864.01
2023-05-13T19:25:39.521Z,100865.38
2023-05-13T19:28:12.486Z,100857.13
2023-05-13T19:30:44.403Z,100859.89
2023-05-13T19:33:16.197Z,100860.23
2023-05-13T19:35:48.753Z,100855.25
2023-05-13T19:38:22.297Z,100853.38
2023-05-13T19:40:54.091Z,100852.35
2023-05-13T19:43:26.151Z,100855.95
2023-05-13T19:45:58.258Z,100850.63
2023-05-13T19:48:30.757Z,100854.06
2023-05-13T19:51:02.400Z,100841.70
2023-05-13T19:53:34.186Z,100838.78
2023-05-13T19:56:06.278Z,100840.33
2023-05-13T19:58:37.849Z,100836.71
2023-05-13T20:01:11.590Z,100834.30
2023-05-13T20:03:43.293Z,100834.47
2023-05-13T20:06:15.136Z,100833.63
2023-05-13T20:08:46.793Z,100835.17
2023-05-13T20:11:19.169Z,100834.81
2023-05-13T20:13:51.171Z,100835.68
2023-05-13T20:16:23.608Z,100840.30
2023-05-13T20:18:55.324Z,100840.50
2023-05-13T20:21:27.130Z,100839.63
2023-05-13T20:23:59.012Z,100841.00
2023-05-13T20:26:32.320Z,100836.54
2023-05-13T20:29:04.462Z,100832.75
2023-05-13T20:31:36.440Z,100827.97
2023-05-13T20:34:08.294Z,100825.02
2023-05-13T20:36:40.278Z,100828.65
2023-05-13T20:39:12.137Z,100828.28
2023-05-13T20:41:44.804Z,100837.23
2023-05-13T20:44:17.688Z,100831.91
2023-05-13T20:46:49.710Z,100833.61
2023-05-13T20:49:21.818Z,100835.49
2023-05-13T20:51:53.424Z,100836.16
2023-05-13T20:54:25.078Z,100844.06
2023-05-13T20:56:56.871Z,100838.91
2023-05-13T20:59:28.807Z,100837.20
2023-05-13T21:02:00.383Z,100834.63
2023-05-13T21:04:32.506Z,100841.63
2023-05-13T21:07:05.257Z,100838.01
2023-05-13T21:09:37.105Z,100836.80
2023-05-13T21:12:09.010Z,100838.17
2023-05-13T21:14:41.322Z,100836.63
2023-05-13T21:17:13.852Z,100826.19
2023-05-13T21:19:45.530Z,100832.02
2023-05-13T21:22:38.087Z,100828.77
2023-05-13T21:25:10.249Z,100829.13
2023-05-13T21:27:42.939Z,100828.46
2023-05-13T21:30:14.878Z,100824.34
2023-05-13T21:32:46.721Z,100828.27
2023-05-13T21:35:19.313Z,100821.92
2023-05-13T21:37:54.042Z,100819.18
2023-05-13T21:40:25.479Z,100814.52
2023-05-13T21:42:57.444Z,100821.39
2023-05-13T21:45:29.362Z,100813.15
2023-05-13T21:48:01.493Z,100814.02
2023-05-13T21:50:33.943Z,100810.41
2023-05-13T21:53:05.821Z,100809.03
2023-05-13T21:55:37.813Z,100810.78
2023-05-13T21:58:09.436Z,100806.99
2023-05-13T22:00:41.829Z,100806.29
2023-05-13T22:03:12.820Z,100803.17
2023-05-13T22:05:44.742Z,100801.97
2023-05-13T22:08:17.129Z,100802.14
2023-05-13T22:10:48.813Z,100806.92
2023-05-13T22:16:03.356Z,100798.69
2023-05-13T22:18:36.257Z,100801.44
2023-05-13T22:21:08.029Z,100800.23
2023-05-13T22:23:40.367Z,100804.89
2023-05-13T22:26:12.118Z,100808.47
2023-05-13T22:28:43.552Z,100805.55
2023-05-13T22:31:16.014Z,100799.03
2023-05-13T22:33:47.690Z,100807.09
2023-05-13T22:36:19.425Z,100800.56
2023-05-13T22:38:51.052Z,100801.41
2023-05-13T22:41:23.854Z,100806.19
2023-05-13T22:43:55.474Z,100801.06
2023-05-13T22:46:27.032Z,100802.06
2023-05-13T22:48:58.671Z,100800.36
2023-05-13T22:51:30.548Z,100806.52
2023-05-13T22:54:02.277Z,100807.39
2023-05-13T22:56:34.131Z,100798.95
2023-05-13T22:59:05.938Z,100799.98
2023-05-13T23:01:38.004Z,100798.95
2023-05-13T23:04:10.196Z,100802.02
2023-05-13T23:06:42.304Z,100800.64
2023-05-13T23:09:14.017Z,100802.67
2023-05-13T23:11:47.067Z,100803.55
2023-05-13T23:14:18.986Z,100802.84
2023-05-13T23:16:50.788Z,100803.00
2023-05-13T23:19:22.293Z,100801.12
2023-05-13T23:21:54.088Z,100804.53
2023-05-13T23:24:25.783Z,100799.91
2023-05-13T23:26:57.246Z,100795.25
2023-05-13T23:29:28.922Z,100804.30
2023-05-13T23:32:01.216Z,100807.03
2023-05-13T23:34:33.279Z,100809.44
2023-05-13T23:37:05.023Z,100808.73
2023-05-13T23:39:37.204Z,100811.14
2023-05-13T23:42:08.956Z,100809.06
2023-05-13T23:44:40.659Z,100808.72
2023-05-13T23:47:13.031Z,100807.02
2023-05-13T23:49:44.854Z,100815.23
2023-05-13T23:52:17.246Z,100811.96
2023-05-13T23:54:48.993Z,100803.03
2023-05-13T23:57:21.312Z,100806.97
2023-05-13T23:59:53.224Z,100805.55
